createdAt,value
2022-09-02T00:02:13.750Z,2.58
2022-09-02T00:04:40.756Z,3.60
2022-09-02T00:07:08.170Z,4.55
2022-09-02T00:09:35.236Z,2.83
2022-09-02T00:12:02.280Z,3.55
2022-09-02T00:14:32.547Z,3.35
2022-09-02T00:17:00.991Z,2.63
2022-09-02T00:19:29.881Z,1.77
2022-09-02T00:21:58.418Z,1.80
2022-09-02T00:24:25.673Z,2.05
2022-09-02T00:26:56.441Z,1.60
2022-09-02T00:29:24.835Z,1.30
2022-09-02T00:31:51.822Z,4.97
2022-09-02T00:34:18.812Z,3.60
2022-09-02T00:36:46.206Z,4.00
2022-09-02T00:39:13.221Z,4.43
2022-09-02T00:41:42.023Z,3.47
2022-09-02T00:44:12.596Z,5.15
2022-09-02T00:46:39.753Z,2.35
2022-09-02T00:49:09.824Z,2.10
2022-09-02T00:51:42.799Z,2.00
2022-09-02T00:54:11.677Z,2.33
2022-09-02T00:56:41.684Z,1.00
2022-09-02T00:59:10.115Z,5.65
2022-09-02T01:01:37.187Z,2.15
2022-09-02T01:04:04.346Z,1.23
2022-09-02T01:06:32.850Z,3.03
2022-09-02T01:09:10.024Z,2.78
2022-09-02T01:11:41.211Z,2.10
2022-09-02T01:14:10.175Z,2.50
2022-09-02T01:16:43.016Z,2.50
2022-09-02T01:19:23.099Z,1.85
2022-09-02T01:21:52.297Z,1.00
2022-09-02T01:24:21.605Z,1.70
2022-09-02T01:26:48.879Z,1.70
2022-09-02T01:29:16.710Z,2.58
2022-09-02T01:31:43.828Z,0.90
2022-09-02T01:34:11.416Z,1.38
2022-09-02T01:36:41.011Z,1.33
2022-09-02T01:39:09.958Z,1.88
2022-09-02T01:41:37.059Z,1.42
2022-09-02T01:44:05.942Z,3.63
2022-09-02T01:46:34.756Z,2.78
2022-09-02T01:49:01.759Z,1.02
2022-09-02T01:51:28.851Z,0.77
2022-09-02T01:53:55.844Z,2.25
2022-09-02T01:56:22.738Z,1.40
2022-09-02T01:58:49.647Z,1.00
2022-09-02T02:01:17.140Z,1.75
2022-09-02T02:03:44.310Z,1.77
2022-09-02T02:06:13.928Z,0.93
2022-09-02T02:08:41.090Z,1.63
2022-09-02T02:11:08.875Z,1.75
2022-09-02T02:13:36.471Z,2.53
2022-09-02T02:16:04.558Z,1.42
2022-09-02T02:18:31.558Z,2.05
2022-09-02T02:20:58.459Z,2.15
2022-09-02T02:23:26.186Z,1.20
2022-09-02T02:25:53.134Z,0.90
2022-09-02T02:28:20.019Z,1.05
2022-09-02T02:30:47.037Z,0.80
2022-09-02T02:33:14.260Z,1.00
2022-09-02T02:35:41.648Z,1.58
2022-09-02T02:38:08.591Z,1.23
2022-09-02T02:40:35.671Z,0.80
2022-09-02T02:43:02.607Z,1.20
2022-09-02T02:45:29.588Z,1.20
2022-09-02T02:47:56.471Z,1.52
2022-09-02T02:50:24.336Z,1.33
2022-09-02T02:52:54.728Z,1.02
2022-09-02T02:55:23.110Z,1.75
2022-09-02T02:57:50.647Z,1.33
2022-09-02T03:00:29.508Z,2.35
2022-09-02T03:02:58.962Z,2.17
2022-09-02T03:05:27.079Z,1.33
2022-09-02T03:07:54.365Z,3.60
2022-09-02T03:10:22.264Z,1.48
2022-09-02T03:12:50.953Z,1.80
2022-09-02T03:15:19.354Z,2.28
2022-09-02T03:17:49.535Z,1.60
2022-09-02T03:20:18.028Z,2.72
2022-09-02T03:22:49.019Z,1.73
2022-09-02T03:25:20.253Z,1.45
2022-09-02T03:27:48.291Z,2.15
2022-09-02T03:30:20.002Z,1.27
2022-09-02T03:35:18.682Z,2.83
2022-09-02T03:37:46.663Z,2.08
2022-09-02T03:40:17.699Z,2.22
2022-09-02T03:42:47.383Z,2.00
2022-09-02T03:45:16.031Z,3.92
2022-09-02T03:47:51.158Z,3.10
2022-09-02T03:50:20.241Z,4.95
2022-09-02T03:52:47.384Z,2.85
2022-09-02T03:55:14.423Z,1.90
2022-09-02T03:57:41.474Z,3.90
2022-09-02T04:00:11.352Z,3.05
2022-09-02T04:02:38.937Z,1.38
2022-09-02T04:05:06.459Z,1.73
2022-09-02T04:07:41.085Z,2.78
2022-09-02T04:10:09.994Z,1.98
2022-09-02T04:12:37.949Z,3.53
2022-09-02T04:15:07.089Z,2.38
2022-09-02T04:17:37.063Z,2.20
2022-09-02T04:20:06.374Z,2.28
2022-09-02T04:22:33.924Z,4.97
2022-09-02T04:25:01.245Z,2.28
2022-09-02T04:27:28.175Z,2.78
2022-09-02T04:29:56.432Z,1.92
2022-09-02T04:32:23.755Z,2.92
2022-09-02T04:34:50.999Z,4.60
2022-09-02T04:37:17.985Z,2.92
2022-09-02T04:39:44.925Z,2.92
2022-09-02T04:42:12.758Z,3.13
2022-09-02T04:44:39.680Z,5.57
2022-09-02T04:47:06.793Z,6.30
2022-09-02T04:49:34.531Z,2.30
2022-09-02T04:52:01.445Z,5.95
2022-09-02T04:54:28.418Z,8.15
2022-09-02T04:56:55.374Z,7.57
2022-09-02T04:59:22.315Z,3.58
2022-09-02T05:01:50.447Z,3.30
2022-09-02T05:04:17.502Z,5.40
2022-09-02T05:06:44.884Z,5.55
2022-09-02T05:09:11.830Z,7.75
2022-09-02T05:11:38.824Z,4.60
2022-09-02T05:14:07.150Z,6.65
2022-09-02T05:16:40.158Z,6.80
2022-09-02T05:19:10.245Z,8.63
2022-09-02T05:21:44.305Z,6.47
2022-09-02T05:24:11.291Z,4.53
2022-09-02T05:26:38.887Z,8.07
2022-09-02T05:29:08.286Z,10.10
2022-09-02T05:31:35.648Z,8.05
2022-09-02T05:34:02.730Z,7.07
2022-09-02T05:36:31.629Z,5.72
2022-09-02T05:38:59.434Z,10.23
2022-09-02T05:41:27.890Z,9.05
2022-09-02T05:43:59.084Z,4.85
2022-09-02T05:46:29.665Z,7.53
2022-09-02T05:49:09.647Z,9.85
2022-09-02T05:51:55.836Z,9.15
2022-09-02T05:54:29.036Z,8.75
2022-09-02T05:57:01.899Z,6.50
2022-09-02T05:59:30.119Z,10.98
2022-09-02T06:01:58.258Z,5.90
2022-09-02T06:04:26.216Z,7.68
2022-09-02T06:06:53.247Z,10.88
2022-09-02T06:09:22.680Z,5.65
2022-09-02T06:11:51.407Z,8.38
2022-09-02T06:14:21.963Z,8.15
2022-09-02T06:16:50.559Z,8.18
2022-09-02T06:19:20.449Z,7.85
2022-09-02T06:21:48.829Z,6.78
2022-09-02T06:24:15.782Z,8.13
2022-09-02T06:26:42.964Z,12.48
2022-09-02T06:29:10.697Z,6.88
2022-09-02T06:31:40.169Z,7.47
2022-09-02T06:34:07.175Z,5.05
2022-09-02T06:36:34.091Z,3.13
2022-09-02T06:39:01.816Z,5.00
2022-09-02T06:41:31.967Z,5.93
2022-09-02T06:44:03.033Z,4.93
2022-09-02T06:46:33.553Z,4.68
2022-09-02T06:49:00.723Z,12.32
2022-09-02T06:51:33.827Z,6.68
2022-09-02T06:54:00.824Z,5.47
2022-09-02T06:56:28.384Z,5.75
2022-09-02T06:58:56.371Z,7.43
2022-09-02T07:01:26.455Z,4.93
2022-09-02T07:04:12.612Z,22.92
2022-09-02T07:06:44.832Z,10.85
2022-09-02T07:09:14.794Z,11.13
2022-09-02T07:11:41.971Z,7.50
2022-09-02T07:14:08.955Z,8.32
2022-09-02T07:16:42.403Z,8.65
2022-09-02T07:19:14.057Z,8.05
2022-09-02T07:21:43.442Z,7.78
2022-09-02T07:24:12.612Z,4.72
2022-09-02T07:26:39.665Z,5.50
2022-09-02T07:29:08.811Z,4.93
2022-09-02T07:31:37.692Z,12.75
2022-09-02T07:34:06.015Z,5.25
2022-09-02T07:36:35.166Z,9.60
2022-09-02T07:39:03.713Z,12.45
2022-09-02T07:41:30.733Z,10.35
2022-09-02T07:43:59.772Z,5.25
2022-09-02T07:46:29.486Z,9.93
2022-09-02T07:48:57.079Z,6.93
2022-09-02T07:51:24.167Z,8.77
2022-09-02T07:53:57.683Z,9.13
2022-09-02T07:56:25.363Z,6.13
2022-09-02T07:58:52.867Z,4.60
2022-09-02T08:01:23.491Z,10.38
2022-09-02T08:03:51.851Z,6.32
2022-09-02T08:06:27.814Z,7.97
2022-09-02T08:09:04.016Z,9.07
2022-09-02T08:11:32.598Z,7.47
2022-09-02T08:14:00.713Z,6.10
2022-09-02T08:16:29.116Z,3.47
2022-09-02T08:18:56.102Z,4.07
2022-09-02T08:21:23.013Z,3.15
2022-09-02T08:23:50.601Z,5.18
2022-09-02T08:26:18.515Z,4.10
2022-09-02T08:28:45.826Z,6.57
2022-09-02T08:31:12.778Z,7.15
2022-09-02T08:33:40.048Z,3.17
2022-09-02T08:36:09.376Z,2.40
2022-09-02T08:38:37.038Z,2.95
2022-09-02T08:41:15.020Z,4.10
2022-09-02T08:43:44.172Z,4.45
2022-09-02T08:46:16.200Z,3.00
2022-09-02T08:48:50.083Z,2.67
2022-09-02T08:52:01.056Z,2.60
2022-09-02T08:54:34.276Z,2.13
2022-09-02T08:57:01.259Z,2.42
2022-09-02T08:59:30.866Z,5.10
2022-09-02T09:02:35.736Z,2.53
2022-09-02T09:05:29.860Z,2.90
2022-09-02T09:08:22.093Z,4.25
2022-09-02T09:11:13.044Z,3.28
2022-09-02T09:13:55.692Z,16.17
2022-09-02T09:16:37.912Z,13.10
2022-09-02T09:19:31.082Z,5.40
2022-09-02T09:22:03.349Z,5.68
2022-09-02T09:24:38.192Z,6.03
2022-09-02T09:27:21.980Z,2.78
2022-09-02T09:29:52.909Z,3.65
2022-09-02T09:32:39.865Z,5.00
2022-09-02T09:35:11.611Z,3.97
2022-09-02T09:37:39.862Z,4.53
2022-09-02T09:40:38.390Z,2.83
2022-09-02T09:43:06.017Z,3.45
2022-09-02T09:45:47.311Z,2.05
2022-09-02T09:48:19.452Z,2.63
2022-09-02T09:50:48.659Z,2.63
2022-09-02T09:53:21.369Z,3.50
2022-09-02T09:55:55.697Z,1.65
2022-09-02T09:58:49.470Z,3.00
2022-09-02T10:01:28.915Z,2.15
2022-09-02T10:03:56.020Z,3.28
2022-09-02T10:06:30.946Z,1.92
2022-09-02T10:09:02.181Z,3.28
2022-09-02T10:11:34.863Z,2.15
2022-09-02T10:14:08.706Z,4.78
2022-09-02T10:16:35.593Z,5.75
2022-09-02T10:19:10.954Z,5.50
2022-09-02T10:21:49.803Z,7.65
2022-09-02T10:24:38.232Z,4.63
2022-09-02T10:27:09.252Z,1.58
2022-09-02T10:30:00.872Z,2.65
2022-09-02T10:33:03.065Z,1.83
2022-09-02T10:36:03.770Z,2.72
2022-09-02T10:38:48.741Z,1.20
2022-09-02T10:44:41.402Z,2.72
2022-09-02T10:47:15.346Z,2.33
2022-09-02T10:50:03.357Z,1.50
2022-09-02T10:52:49.870Z,4.15
2022-09-02T10:55:43.090Z,2.08
2022-09-02T10:58:29.762Z,2.22
2022-09-02T11:00:58.092Z,1.38
2022-09-02T11:03:33.846Z,0.75
2022-09-02T11:06:19.430Z,5.90
2022-09-02T11:08:54.271Z,1.73
2022-09-02T11:11:25.008Z,3.65
2022-09-02T11:13:57.732Z,3.00
2022-09-02T11:16:41.952Z,1.48
2022-09-02T11:19:22.074Z,2.33
2022-09-02T11:22:27.323Z,7.38
2022-09-02T11:25:08.272Z,1.13
2022-09-02T11:27:52.914Z,3.05
2022-09-02T11:30:23.415Z,1.73
2022-09-02T11:32:54.815Z,1.98
2022-09-02T11:35:34.993Z,1.13
2022-09-02T11:38:19.353Z,5.30
2022-09-02T11:41:32.762Z,2.15
2022-09-02T11:43:47.766Z,4.32
2022-09-02T11:46:39.715Z,2.05
2022-09-02T11:49:26.301Z,1.88
2022-09-02T11:52:08.429Z,1.33
2022-09-02T11:54:45.190Z,1.90
2022-09-02T11:57:23.577Z,3.78
2022-09-02T11:59:50.778Z,1.08
2022-09-02T12:02:41.391Z,1.45
2022-09-02T12:05:43.996Z,1.60
2022-09-02T12:08:15.275Z,1.20
2022-09-02T12:10:48.567Z,1.75
2022-09-02T12:13:43.517Z,2.25
2022-09-02T12:16:16.096Z,2.92
2022-09-02T12:18:45.305Z,2.53
2022-09-02T12:21:19.876Z,2.95
2022-09-02T12:23:53.935Z,3.50
2022-09-02T12:26:25.422Z,10.37
2022-09-02T12:28:53.849Z,2.80
2022-09-02T12:31:30.275Z,1.50
2022-09-02T12:33:57.383Z,2.70
2022-09-02T12:36:37.382Z,2.40
2022-09-02T12:39:23.052Z,12.63
2022-09-02T12:42:11.009Z,5.00
2022-09-02T12:45:02.506Z,4.68
2022-09-02T12:47:39.065Z,4.72
2022-09-02T12:50:36.223Z,2.40
2022-09-02T12:53:25.075Z,3.20
2022-09-02T12:56:01.813Z,9.68
2022-09-02T12:58:45.091Z,4.10
2022-09-02T13:01:43.739Z,5.93
2022-09-02T13:04:13.703Z,6.03
2022-09-02T13:07:12.541Z,4.43
2022-09-02T13:10:15.706Z,6.65
2022-09-02T13:13:00.960Z,3.17
2022-09-02T13:15:56.748Z,4.35
2022-09-02T13:18:45.117Z,5.30
2022-09-02T13:21:20.978Z,4.15
2022-09-02T13:24:34.246Z,4.18
2022-09-02T13:27:14.115Z,3.05
2022-09-02T13:30:03.216Z,4.10
2022-09-02T13:32:30.905Z,4.07
2022-09-02T13:35:02.326Z,3.25
2022-09-02T13:40:23.783Z,1.63
2022-09-02T13:42:53.694Z,6.15
2022-09-02T13:45:26.121Z,2.95
2022-09-02T13:48:07.429Z,2.95
2022-09-02T13:50:36.973Z,6.00
2022-09-02T13:55:57.214Z,5.70
2022-09-02T13:58:37.394Z,2.45
2022-09-02T14:01:31.265Z,2.65
2022-09-02T14:04:01.905Z,2.50
2022-09-02T14:06:38.876Z,3.20
2022-09-02T14:09:11.431Z,5.70
2022-09-02T14:11:43.947Z,4.63
2022-09-02T14:14:22.259Z,4.32
2022-09-02T14:16:49.166Z,4.82
2022-09-02T14:19:21.927Z,8.93
2022-09-02T14:21:51.330Z,3.50
2022-09-02T14:24:23.553Z,6.18
2022-09-02T14:26:54.971Z,2.83
2022-09-02T14:32:20.674Z,2.90
2022-09-02T14:34:49.169Z,2.47
2022-09-02T14:37:25.396Z,1.60
2022-09-02T14:40:12.845Z,2.35
2022-09-02T14:42:47.142Z,4.30
2022-09-02T14:45:15.147Z,4.32
2022-09-02T14:47:42.698Z,4.93
2022-09-02T14:50:15.343Z,3.15
2022-09-02T14:52:49.483Z,4.38
2022-09-02T14:55:50.134Z,2.97
2022-09-02T14:58:17.994Z,3.15
2022-09-02T15:00:52.155Z,3.35
2022-09-02T15:03:20.409Z,6.45
2022-09-02T15:05:47.803Z,6.85
2022-09-02T15:08:16.319Z,4.00
2022-09-02T15:10:43.709Z,7.68
2022-09-02T15:13:22.743Z,15.70
2022-09-02T15:15:55.540Z,4.78
2022-09-02T15:18:23.512Z,6.57
2022-09-02T15:20:51.323Z,2.70
2022-09-02T15:23:19.503Z,1.90
2022-09-02T15:25:47.538Z,2.55
2022-09-02T15:28:14.579Z,2.30
2022-09-02T15:30:41.520Z,2.55
2022-09-02T15:33:16.753Z,1.30
2022-09-02T15:35:45.072Z,0.98
2022-09-02T15:38:12.216Z,4.93
2022-09-02T15:40:39.301Z,4.13
2022-09-02T15:43:06.263Z,3.08
2022-09-02T15:45:34.129Z,3.88
2022-09-02T15:48:02.577Z,1.75
2022-09-02T15:50:32.541Z,1.40
2022-09-02T15:53:01.242Z,1.08
2022-09-02T15:55:31.416Z,1.30
2022-09-02T15:57:58.259Z,2.10
2022-09-02T16:00:28.567Z,1.13
2022-09-02T16:02:57.104Z,1.20
2022-09-02T16:05:24.252Z,5.63
2022-09-02T16:07:52.201Z,4.07
2022-09-02T16:10:19.061Z,2.35
2022-09-02T16:12:46.109Z,2.88
2022-09-02T16:15:13.189Z,1.40
2022-09-02T16:17:42.043Z,2.13
2022-09-02T16:20:09.324Z,1.52
2022-09-02T16:22:36.314Z,2.85
2022-09-02T16:25:03.247Z,2.67
2022-09-02T16:27:48.619Z,3.10
2022-09-02T16:30:16.295Z,1.38
2022-09-02T16:32:44.569Z,2.35
2022-09-02T16:35:11.827Z,1.67
2022-09-02T16:37:38.779Z,1.63
2022-09-02T16:40:07.987Z,1.30
2022-09-02T16:42:38.079Z,2.47
2022-09-02T16:45:05.895Z,2.33
2022-09-02T16:47:32.859Z,2.72
2022-09-02T16:49:59.866Z,2.55
2022-09-02T16:52:26.885Z,3.97
2022-09-02T16:54:53.745Z,1.92
2022-09-02T16:57:20.750Z,1.92
2022-09-02T16:59:47.660Z,1.45
2022-09-02T17:02:14.719Z,2.25
2022-09-02T17:04:41.677Z,1.92
2022-09-02T17:07:09.553Z,2.80
2022-09-02T17:09:36.496Z,1.60
2022-09-02T17:12:03.528Z,1.63
2022-09-02T17:14:30.494Z,3.13
2022-09-02T17:16:57.638Z,2.15
2022-09-02T17:19:29.862Z,4.90
2022-09-02T17:21:58.888Z,2.58
2022-09-02T17:24:28.251Z,2.50
2022-09-02T17:26:57.317Z,4.63
2022-09-02T17:32:15.473Z,2.25
2022-09-02T17:34:42.419Z,1.98
2022-09-02T17:37:09.371Z,2.55
2022-09-02T17:39:36.607Z,3.05
2022-09-02T17:42:06.670Z,2.17
2022-09-02T17:44:36.506Z,3.92
2022-09-02T17:47:15.689Z,12.07
2022-09-02T17:49:52.064Z,7.20
2022-09-02T17:52:23.967Z,2.42
2022-09-02T17:54:53.906Z,3.97
2022-09-02T17:57:40.260Z,2.17
2022-09-02T18:00:26.640Z,6.07
2022-09-02T18:03:18.053Z,3.70
2022-09-02T18:06:09.354Z,5.82
2022-09-02T18:08:42.299Z,3.05
2022-09-02T18:11:09.246Z,4.32
2022-09-02T18:13:54.891Z,3.88
2022-09-02T18:16:40.978Z,2.80
2022-09-02T18:19:13.055Z,4.22
2022-09-02T18:22:11.379Z,7.18
2022-09-02T18:25:16.577Z,5.95
2022-09-02T18:28:05.113Z,5.55
2022-09-02T18:30:51.421Z,6.47
2022-09-02T18:33:54.004Z,5.47
2022-09-02T18:36:35.678Z,6.20
2022-09-02T18:41:55.238Z,6.72
2022-09-02T18:44:36.468Z,8.02
2022-09-02T18:47:10.302Z,11.98
2022-09-02T18:49:41.586Z,7.40
2022-09-02T18:52:10.494Z,5.30
2022-09-02T18:54:54.594Z,6.35
2022-09-02T18:57:22.865Z,7.07
2022-09-02T19:00:09.435Z,9.77
2022-09-02T19:02:56.253Z,6.97
2022-09-02T19:05:28.172Z,12.35
2022-09-02T19:08:32.647Z,16.85
2022-09-02T19:11:05.801Z,8.68
2022-09-02T19:13:57.356Z,7.93
2022-09-02T19:16:28.117Z,5.75
2022-09-02T19:18:55.352Z,6.55
2022-09-02T19:21:48.125Z,8.40
2022-09-02T19:24:28.951Z,6.95
2022-09-02T19:27:04.615Z,6.83
2022-09-02T19:29:33.980Z,6.68
2022-09-02T19:32:00.935Z,8.48
2022-09-02T19:34:34.511Z,8.80
2022-09-02T19:37:03.181Z,8.50
2022-09-02T19:39:31.860Z,11.48
2022-09-02T19:41:59.435Z,9.38
2022-09-02T19:44:26.402Z,12.23
2022-09-02T19:49:41.704Z,12.30
2022-09-02T19:52:10.585Z,10.68
2022-09-02T19:54:37.677Z,10.80
2022-09-02T19:57:04.613Z,14.85
2022-09-02T19:59:31.543Z,13.40
2022-09-02T20:01:58.536Z,11.15
2022-09-02T20:04:25.827Z,10.98
2022-09-02T20:06:58.069Z,13.45
2022-09-02T20:09:25.785Z,11.93
2022-09-02T20:11:56.595Z,10.05
2022-09-02T20:14:23.605Z,10.55
2022-09-02T20:16:59.794Z,13.15
2022-09-02T20:19:26.886Z,9.43
2022-09-02T20:21:53.886Z,10.00
2022-09-02T20:24:31.576Z,12.45
2022-09-02T20:27:10.708Z,9.93
2022-09-02T20:30:09.651Z,9.35
2022-09-02T20:32:58.720Z,10.40
2022-09-02T20:35:44.468Z,9.30
2022-09-02T20:38:39.163Z,9.10
2022-09-02T20:41:21.118Z,14.13
2022-09-02T20:43:57.193Z,7.47
2022-09-02T20:46:36.042Z,7.75
2022-09-02T20:49:09.459Z,14.63
2022-09-02T20:51:59.332Z,24.80
2022-09-02T20:54:54.094Z,25.63
2022-09-02T20:57:30.937Z,26.33
2022-09-02T21:00:11.946Z,22.77
2022-09-02T21:02:51.265Z,20.17
2022-09-02T21:05:25.374Z,27.77
2022-09-02T21:08:03.891Z,42.25
2022-09-02T21:10:38.966Z,20.35
2022-09-02T21:13:10.609Z,18.38
2022-09-02T21:15:52.148Z,13.13
2022-09-02T21:18:56.327Z,13.55
2022-09-02T21:21:25.409Z,16.20
2022-09-02T21:24:15.516Z,17.75
2022-09-02T21:26:48.247Z,20.02
2022-09-02T21:29:22.718Z,19.88
2022-09-02T21:31:55.404Z,19.98
2022-09-02T21:34:30.612Z,25.30
2022-09-02T21:36:59.098Z,33.13
2022-09-02T21:39:28.858Z,21.15
2022-09-02T21:42:03.029Z,21.40
2022-09-02T21:45:02.020Z,21.40
2022-09-02T21:48:16.987Z,15.77
2022-09-02T21:51:01.763Z,19.70
2022-09-02T21:53:56.642Z,14.65
2022-09-02T21:56:38.969Z,12.60
2022-09-02T21:59:28.552Z,13.18
2022-09-02T22:02:33.019Z,11.90
2022-09-02T22:05:21.745Z,13.00
2022-09-02T22:07:57.812Z,13.10
2022-09-02T22:10:40.473Z,12.73
2022-09-02T22:13:08.070Z,12.90
2022-09-02T22:15:35.187Z,10.82
2022-09-02T22:18:24.732Z,10.35
2022-09-02T22:21:01.450Z,8.02
2022-09-02T22:23:30.195Z,11.98
2022-09-02T22:26:13.236Z,7.13
2022-09-02T22:28:46.074Z,6.05
2022-09-02T22:31:16.337Z,8.43
2022-09-02T22:33:55.776Z,6.78
2022-09-02T22:36:29.636Z,4.30
2022-09-02T22:39:02.075Z,4.30
2022-09-02T22:41:34.488Z,5.75
2022-09-02T22:44:14.189Z,4.85
2022-09-02T22:47:18.314Z,4.60
2022-09-02T22:50:13.521Z,5.93
2022-09-02T22:52:47.407Z,4.78
2022-09-02T22:55:22.192Z,4.28
2022-09-02T22:57:52.278Z,5.93
2022-09-02T23:00:20.708Z,6.07
2022-09-02T23:03:25.405Z,4.35
2022-09-02T23:06:03.226Z,6.22
2022-09-02T23:08:31.690Z,7.30
2022-09-02T23:11:02.919Z,7.15
2022-09-02T23:13:55.860Z,4.90
2022-09-02T23:16:40.609Z,3.65
2022-09-02T23:19:36.008Z,4.38
2022-09-02T23:22:33.945Z,3.78
2022-09-02T23:25:13.956Z,4.28
2022-09-02T23:28:21.354Z,4.65
2022-09-02T23:31:26.012Z,6.00
2022-09-02T23:34:10.709Z,7.10
2022-09-02T23:37:03.392Z,4.50
2022-09-02T23:39:55.788Z,4.22
2022-09-02T23:42:23.121Z,3.28
2022-09-02T23:44:50.291Z,8.48
2022-09-02T23:47:43.172Z,4.07
2022-09-02T23:50:28.538Z,3.63
2022-09-02T23:53:24.005Z,3.05
2022-09-02T23:56:05.797Z,6.13
